sensor_id;sensor_type;location;lat;lon;timestamp;P1;durP1;ratioP1;P2;durP2;ratioP2
17528;SDS011;8882;53.192;8.184;2024-01-30T05:17:13;16.03;;;10.77;;
17528;SDS011;8882;53.192;8.184;2024-01-30T05:19:38;18.00;;;11.20;;
17528;SDS011;8882;53.192;8.184;2024-01-30T05:22:04;13.33;;;10.80;;
17528;SDS011;8882;53.192;8.184;2024-01-30T05:24:29;15.97;;;10.20;;
17528;SDS011;8882;53.192;8.184;2024-01-30T05:26:55;16.60;;;10.80;;
17528;SDS011;8882;53.192;8.184;2024-01-30T05:29:20;16.70;;;10.90;;
17528;SDS011;8882;53.192;8.184;2024-01-30T05:31:46;21.43;;;11.93;;
17528;SDS011;8882;53.192;8.184;2024-01-30T05:34:12;15.43;;;10.97;;
17528;SDS011;8882;53.192;8.184;2024-01-30T05:36:37;19.03;;;11.33;;
17528;SDS011;8882;53.192;8.184;2024-01-30T05:39:03;15.57;;;10.43;;
17528;SDS011;8882;53.192;8.184;2024-01-30T05:41:28;14.03;;;10.60;;
17528;SDS011;8882;53.192;8.184;2024-01-30T05:43:53;17.27;;;11.50;;
17528;SDS011;8882;53.192;8.184;2024-01-30T05:46:19;16.80;;;10.73;;
17528;SDS011;8882;53.192;8.184;2024-01-30T05:48:44;18.07;;;11.60;;
17528;SDS011;8882;53.192;8.184;2024-01-30T05:51:10;16.77;;;10.33;;
17528;SDS011;8882;53.192;8.184;2024-01-30T05:53:35;19.10;;;10.97;;
17528;SDS011;8882;53.192;8.184;2024-01-30T05:56:01;16.70;;;11.00;;
17528;SDS011;8882;53.192;8.184;2024-01-30T05:58:28;17.27;;;11.30;;
17528;SDS011;8882;53.192;8.184;2024-01-30T06:00:53;14.13;;;10.03;;
17528;SDS011;8882;53.192;8.184;2024-01-30T06:03:19;15.17;;;11.27;;
17528;SDS011;8882;53.192;8.184;2024-01-30T06:05:44;15.37;;;10.67;;
17528;SDS011;8882;53.192;8.184;2024-01-30T06:08:10;18.17;;;10.80;;
17528;SDS011;8882;53.192;8.184;2024-01-30T06:10:35;15.37;;;10.53;;
17528;SDS011;8882;53.192;8.184;2024-01-30T06:13:01;14.77;;;10.33;;
17528;SDS011;8882;53.192;8.184;2024-01-30T06:15:26;18.97;;;11.23;;
17528;SDS011;8882;53.192;8.184;2024-01-30T06:17:54;17.23;;;11.20;;
17528;SDS011;8882;53.192;8.184;2024-01-30T06:20:20;16.77;;;11.27;;
17528;SDS011;8882;53.192;8.184;2024-01-30T06:22:45;16.13;;;10.67;;
17528;SDS011;8882;53.192;8.184;2024-01-30T06:25:11;19.23;;;11.13;;
17528;SDS011;8882;53.192;8.184;2024-01-30T06:27:37;17.57;;;11.03;;
17528;SDS011;8882;53.192;8.184;2024-01-30T06:30:03;16.10;;;10.17;;
17528;SDS011;8882;53.192;8.184;2024-01-30T06:32:29;16.43;;;10.90;;
17528;SDS011;8882;53.192;8.184;2024-01-30T06:34:59;15.17;;;10.30;;
17528;SDS011;8882;53.192;8.184;2024-01-30T06:37:25;16.17;;;11.17;;
17528;SDS011;8882;53.192;8.184;2024-01-30T06:39:50;14.27;;;10.13;;
17528;SDS011;8882;53.192;8.184;2024-01-30T06:42:17;16.57;;;11.43;;
17528;SDS011;8882;53.192;8.184;2024-01-30T06:44:42;17.33;;;10.33;;
17528;SDS011;8882;53.192;8.184;2024-01-30T06:47:08;15.77;;;11.23;;
17528;SDS011;8882;53.192;8.184;2024-01-30T06:49:33;14.57;;;10.33;;
17528;SDS011;8882;53.192;8.184;2024-01-30T06:51:59;14.80;;;10.90;;
17528;SDS011;8882;53.192;8.184;2024-01-30T06:54:25;15.83;;;10.90;;
17528;SDS011;8882;53.192;8.184;2024-01-30T06:56:50;17.13;;;10.67;;
17528;SDS011;8882;53.192;8.184;2024-01-30T06:59:16;17.20;;;10.87;;
17528;SDS011;8882;53.192;8.184;2024-01-30T07:01:41;19.37;;;11.50;;
17528;SDS011;8882;53.192;8.184;2024-01-30T07:04:07;16.70;;;10.87;;
17528;SDS011;8882;53.192;8.184;2024-01-30T07:06:32;16.13;;;10.73;;
17528;SDS011;8882;53.192;8.184;2024-01-30T07:08:58;15.70;;;10.87;;
17528;SDS011;8882;53.192;8.184;2024-01-30T07:11:23;16.80;;;11.53;;
17528;SDS011;8882;53.192;8.184;2024-01-30T07:13:52;16.20;;;10.77;;
17528;SDS011;8882;53.192;8.184;2024-01-30T07:16:18;19.40;;;10.90;;
17528;SDS011;8882;53.192;8.184;2024-01-30T07:18:44;16.53;;;10.57;;
17528;SDS011;8882;53.192;8.184;2024-01-30T07:21:10;20.63;;;12.07;;
17528;SDS011;8882;53.192;8.184;2024-01-30T07:23:35;17.70;;;10.57;;
17528;SDS011;8882;53.192;8.184;2024-01-30T07:26:03;16.60;;;10.50;;
17528;SDS011;8882;53.192;8.184;2024-01-30T07:28:29;14.67;;;11.07;;
17528;SDS011;8882;53.192;8.184;2024-01-30T07:30:55;16.03;;;10.90;;
17528;SDS011;8882;53.192;8.184;2024-01-30T07:33:21;17.63;;;11.10;;
17528;SDS011;8882;53.192;8.184;2024-01-30T07:35:46;15.77;;;10.93;;
17528;SDS011;8882;53.192;8.184;2024-01-30T07:38:12;17.63;;;10.77;;
17528;SDS011;8882;53.192;8.184;2024-01-30T07:40:37;18.93;;;10.67;;
17528;SDS011;8882;53.192;8.184;2024-01-30T07:43:03;14.10;;;10.87;;
17528;SDS011;8882;53.192;8.184;2024-01-30T07:45:28;16.80;;;10.50;;
17528;SDS011;8882;53.192;8.184;2024-01-30T07:47:57;17.43;;;10.23;;
17528;SDS011;8882;53.192;8.184;2024-01-30T07:50:24;16.63;;;10.40;;
17528;SDS011;8882;53.192;8.184;2024-01-30T07:52:49;14.00;;;10.53;;
17528;SDS011;8882;53.192;8.184;2024-01-30T07:55:19;16.60;;;10.73;;
17528;SDS011;8882;53.192;8.184;2024-01-30T07:57:53;14.37;;;9.90;;
17528;SDS011;8882;53.192;8.184;2024-01-30T08:00:20;14.93;;;10.57;;
17528;SDS011;8882;53.192;8.184;2024-01-30T08:02:46;15.50;;;10.37;;
17528;SDS011;8882;53.192;8.184;2024-01-30T08:05:11;13.60;;;9.60;;
17528;SDS011;8882;53.192;8.184;2024-01-30T08:07:39;19.33;;;11.27;;
17528;SDS011;8882;53.192;8.184;2024-01-30T08:10:05;15.43;;;9.60;;
17528;SDS011;8882;53.192;8.184;2024-01-30T08:12:31;12.53;;;9.30;;
17528;SDS011;8882;53.192;8.184;2024-01-30T08:14:56;14.80;;;8.97;;
17528;SDS011;8882;53.192;8.184;2024-01-30T08:17:22;16.03;;;9.97;;
17528;SDS011;8882;53.192;8.184;2024-01-30T08:19:47;16.20;;;10.33;;
17528;SDS011;8882;53.192;8.184;2024-01-30T08:22:13;13.57;;;9.47;;
17528;SDS011;8882;53.192;8.184;2024-01-30T08:24:38;15.17;;;9.23;;
17528;SDS011;8882;53.192;8.184;2024-01-30T08:27:06;15.27;;;10.60;;
17528;SDS011;8882;53.192;8.184;2024-01-30T08:29:34;18.87;;;10.87;;
17528;SDS011;8882;53.192;8.184;2024-01-30T08:32:00;14.70;;;10.33;;
17528;SDS011;8882;53.192;8.184;2024-01-30T08:34:25;17.47;;;10.13;;
17528;SDS011;8882;53.192;8.184;2024-01-30T08:36:51;16.10;;;9.90;;
17528;SDS011;8882;53.192;8.184;2024-01-30T08:39:16;15.07;;;10.00;;
17528;SDS011;8882;53.192;8.184;2024-01-30T08:41:42;13.03;;;9.10;;
17528;SDS011;8882;53.192;8.184;2024-01-30T08:44:07;16.00;;;9.83;;
17528;SDS011;8882;53.192;8.184;2024-01-30T08:46:33;18.37;;;9.67;;
17528;SDS011;8882;53.192;8.184;2024-01-30T08:48:59;14.03;;;9.10;;
17528;SDS011;8882;53.192;8.184;2024-01-30T08:51:24;15.40;;;10.03;;
17528;SDS011;8882;53.192;8.184;2024-01-30T08:53:50;16.00;;;10.17;;
17528;SDS011;8882;53.192;8.184;2024-01-30T08:56:16;14.30;;;9.23;;
17528;SDS011;8882;53.192;8.184;2024-01-30T08:58:42;12.87;;;9.23;;
17528;SDS011;8882;53.192;8.184;2024-01-30T09:01:07;15.40;;;9.53;;
17528;SDS011;8882;53.192;8.184;2024-01-30T09:03:32;18.07;;;9.13;;
17528;SDS011;8882;53.192;8.184;2024-01-30T09:05:58;15.70;;;9.70;;
17528;SDS011;8882;53.192;8.184;2024-01-30T09:08:24;12.37;;;9.10;;
17528;SDS011;8882;53.192;8.184;2024-01-30T09:10:50;17.63;;;9.60;;
17528;SDS011;8882;53.192;8.184;2024-01-30T09:13:15;15.50;;;9.67;;
17528;SDS011;8882;53.192;8.184;2024-01-30T09:15:41;15.73;;;9.07;;
17528;SDS011;8882;53.192;8.184;2024-01-30T09:18:07;13.47;;;9.03;;
17528;SDS011;8882;53.192;8.184;2024-01-30T09:20:32;13.77;;;9.70;;
17528;SDS011;8882;53.192;8.184;2024-01-30T09:22:58;14.17;;;9.53;;
17528;SDS011;8882;53.192;8.184;2024-01-30T09:25:23;12.80;;;8.37;;
17528;SDS011;8882;53.192;8.184;2024-01-30T09:27:49;12.70;;;8.67;;
17528;SDS011;8882;53.192;8.184;2024-01-30T09:30:15;14.77;;;8.80;;
17528;SDS011;8882;53.192;8.184;2024-01-30T09:32:40;14.37;;;8.97;;
17528;SDS011;8882;53.192;8.184;2024-01-30T09:35:06;15.07;;;8.07;;
17528;SDS011;8882;53.192;8.184;2024-01-30T09:37:32;13.87;;;7.97;;
17528;SDS011;8882;53.192;8.184;2024-01-30T09:39:58;11.60;;;7.43;;
17528;SDS011;8882;53.192;8.184;2024-01-30T09:42:33;14.67;;;8.97;;
17528;SDS011;8882;53.192;8.184;2024-01-30T09:45:03;11.77;;;8.30;;
17528;SDS011;8882;53.192;8.184;2024-01-30T09:47:33;11.43;;;8.17;;
17528;SDS011;8882;53.192;8.184;2024-01-30T09:50:07;11.03;;;7.97;;
17528;SDS011;8882;53.192;8.184;2024-01-30T09:52:34;13.10;;;8.80;;
17528;SDS011;8882;53.192;8.184;2024-01-30T09:55:00;13.37;;;8.90;;
17528;SDS011;8882;53.192;8.184;2024-01-30T09:57:26;15.07;;;8.57;;
17528;SDS011;8882;53.192;8.184;2024-01-30T09:59:51;10.20;;;8.03;;
17528;SDS011;8882;53.192;8.184;2024-01-30T10:02:19;13.47;;;8.47;;
17528;SDS011;8882;53.192;8.184;2024-01-30T10:04:46;10.60;;;7.80;;
17528;SDS011;8882;53.192;8.184;2024-01-30T10:07:16;10.93;;;7.63;;
17528;SDS011;8882;53.192;8.184;2024-01-30T10:09:42;12.17;;;8.07;;
17528;SDS011;8882;53.192;8.184;2024-01-30T10:12:11;13.33;;;8.47;;
17528;SDS011;8882;53.192;8.184;2024-01-30T10:14:38;11.57;;;7.53;;
17528;SDS011;8882;53.192;8.184;2024-01-30T10:17:04;13.40;;;8.10;;
17528;SDS011;8882;53.192;8.184;2024-01-30T10:19:30;11.10;;;7.63;;
17528;SDS011;8882;53.192;8.184;2024-01-30T10:21:56;11.90;;;7.47;;
17528;SDS011;8882;53.192;8.184;2024-01-30T10:24:25;11.33;;;8.00;;
17528;SDS011;8882;53.192;8.184;2024-01-30T10:26:51;13.60;;;7.57;;
17528;SDS011;8882;53.192;8.184;2024-01-30T10:29:18;10.30;;;7.90;;
17528;SDS011;8882;53.192;8.184;2024-01-30T10:31:43;11.00;;;7.80;;
17528;SDS011;8882;53.192;8.184;2024-01-30T10:34:09;12.27;;;7.80;;
17528;SDS011;8882;53.192;8.184;2024-01-30T10:36:37;11.93;;;8.13;;
17528;SDS011;8882;53.192;8.184;2024-01-30T10:39:06;12.10;;;8.50;;
17528;SDS011;8882;53.192;8.184;2024-01-30T10:41:32;12.90;;;7.57;;
17528;SDS011;8882;53.192;8.184;2024-01-30T10:44:21;13.10;;;7.73;;
17528;SDS011;8882;53.192;8.184;2024-01-30T10:46:49;11.00;;;7.93;;
17528;SDS011;8882;53.192;8.184;2024-01-30T10:49:21;12.03;;;7.93;;
17528;SDS011;8882;53.192;8.184;2024-01-30T10:51:48;9.90;;;7.80;;
17528;SDS011;8882;53.192;8.184;2024-01-30T10:54:14;12.17;;;7.37;;
17528;SDS011;8882;53.192;8.184;2024-01-30T10:56:42;10.73;;;7.90;;
17528;SDS011;8882;53.192;8.184;2024-01-30T10:59:08;9.93;;;7.63;;
17528;SDS011;8882;53.192;8.184;2024-01-30T11:01:34;14.47;;;7.83;;
17528;SDS011;8882;53.192;8.184;2024-01-30T11:04:00;12.10;;;8.00;;
17528;SDS011;8882;53.192;8.184;2024-01-30T11:06:26;12.83;;;8.03;;
17528;SDS011;8882;53.192;8.184;2024-01-30T11:09:01;12.60;;;7.93;;
17528;SDS011;8882;53.192;8.184;2024-01-30T11:14:25;12.83;;;7.80;;
17528;SDS011;8882;53.192;8.184;2024-01-30T11:16:52;19.03;;;9.37;;
17528;SDS011;8882;53.192;8.184;2024-01-30T11:19:24;14.07;;;8.97;;
17528;SDS011;8882;53.192;8.184;2024-01-30T11:21:51;15.33;;;7.83;;
17528;SDS011;8882;53.192;8.184;2024-01-30T11:24:21;13.67;;;7.67;;
17528;SDS011;8882;53.192;8.184;2024-01-30T11:26:48;14.07;;;7.23;;
17528;SDS011;8882;53.192;8.184;2024-01-30T11:29:15;10.20;;;7.27;;
17528;SDS011;8882;53.192;8.184;2024-01-30T11:31:51;11.83;;;7.40;;
17528;SDS011;8882;53.192;8.184;2024-01-30T11:34:18;12.03;;;7.40;;
17528;SDS011;8882;53.192;8.184;2024-01-30T11:36:45;10.57;;;7.07;;
17528;SDS011;8882;53.192;8.184;2024-01-30T11:39:18;11.47;;;6.97;;
17528;SDS011;8882;53.192;8.184;2024-01-30T11:41:45;9.83;;;6.80;;
17528;SDS011;8882;53.192;8.184;2024-01-30T11:44:12;9.17;;;6.83;;
17528;SDS011;8882;53.192;8.184;2024-01-30T11:46:38;12.23;;;8.87;;
17528;SDS011;8882;53.192;8.184;2024-01-30T11:49:03;11.47;;;8.10;;
17528;SDS011;8882;53.192;8.184;2024-01-30T11:51:30;12.83;;;7.67;;
17528;SDS011;8882;53.192;8.184;2024-01-30T11:53:56;13.07;;;7.53;;
17528;SDS011;8882;53.192;8.184;2024-01-30T11:56:23;10.83;;;7.30;;
17528;SDS011;8882;53.192;8.184;2024-01-30T11:58:50;11.50;;;7.70;;
17528;SDS011;8882;53.192;8.184;2024-01-30T12:01:17;11.67;;;7.33;;
17528;SDS011;8882;53.192;8.184;2024-01-30T12:03:43;12.63;;;7.23;;
17528;SDS011;8882;53.192;8.184;2024-01-30T12:06:15;12.23;;;7.37;;
17528;SDS011;8882;53.192;8.184;2024-01-30T12:08:40;11.40;;;6.87;;
17528;SDS011;8882;53.192;8.184;2024-01-30T12:11:06;10.50;;;7.20;;
17528;SDS011;8882;53.192;8.184;2024-01-30T12:13:32;11.00;;;7.17;;
17528;SDS011;8882;53.192;8.184;2024-01-30T12:15:57;9.23;;;7.27;;
17528;SDS011;8882;53.192;8.184;2024-01-30T12:18:23;14.00;;;7.43;;
17528;SDS011;8882;53.192;8.184;2024-01-30T12:20:58;11.73;;;7.23;;
17528;SDS011;8882;53.192;8.184;2024-01-30T12:23:24;9.33;;;7.00;;
17528;SDS011;8882;53.192;8.184;2024-01-30T12:25:51;12.50;;;7.77;;
17528;SDS011;8882;53.192;8.184;2024-01-30T12:28:17;11.17;;;7.23;;
17528;SDS011;8882;53.192;8.184;2024-01-30T12:30:43;11.90;;;7.53;;
17528;SDS011;8882;53.192;8.184;2024-01-30T12:33:08;12.13;;;7.67;;
17528;SDS011;8882;53.192;8.184;2024-01-30T12:35:35;13.27;;;6.67;;
17528;SDS011;8882;53.192;8.184;2024-01-30T12:38:00;12.87;;;7.17;;
17528;SDS011;8882;53.192;8.184;2024-01-30T12:40:27;11.90;;;7.07;;
17528;SDS011;8882;53.192;8.184;2024-01-30T12:42:53;12.33;;;7.53;;
17528;SDS011;8882;53.192;8.184;2024-01-30T12:45:19;10.97;;;7.07;;
17528;SDS011;8882;53.192;8.184;2024-01-30T12:47:46;15.20;;;7.73;;
17528;SDS011;8882;53.192;8.184;2024-01-30T12:50:12;12.50;;;7.03;;
17528;SDS011;8882;53.192;8.184;2024-01-30T12:52:40;11.00;;;7.70;;
17528;SDS011;8882;53.192;8.184;2024-01-30T12:55:07;10.77;;;7.00;;
17528;SDS011;8882;53.192;8.184;2024-01-30T12:57:32;13.70;;;7.57;;
17528;SDS011;8882;53.192;8.184;2024-01-30T12:59:58;12.17;;;7.47;;
17528;SDS011;8882;53.192;8.184;2024-01-30T13:02:23;12.60;;;7.97;;
17528;SDS011;8882;53.192;8.184;2024-01-30T13:04:49;11.87;;;7.07;;
17528;SDS011;8882;53.192;8.184;2024-01-30T13:07:15;13.33;;;7.03;;
17528;SDS011;8882;53.192;8.184;2024-01-30T13:09:40;10.73;;;7.10;;
17528;SDS011;8882;53.192;8.184;2024-01-30T13:12:06;11.37;;;7.17;;
17528;SDS011;8882;53.192;8.184;2024-01-30T13:14:32;11.13;;;7.47;;
17528;SDS011;8882;53.192;8.184;2024-01-30T13:16:57;9.97;;;6.70;;
17528;SDS011;8882;53.192;8.184;2024-01-30T13:19:23;10.53;;;6.97;;
17528;SDS011;8882;53.192;8.184;2024-01-30T13:21:49;11.13;;;7.47;;
17528;SDS011;8882;53.192;8.184;2024-01-30T13:24:14;10.93;;;7.17;;
17528;SDS011;8882;53.192;8.184;2024-01-30T13:26:40;14.63;;;7.57;;
17528;SDS011;8882;53.192;8.184;2024-01-30T13:29:07;13.30;;;7.07;;
17528;SDS011;8882;53.192;8.184;2024-01-30T13:31:33;14.97;;;8.03;;
17528;SDS011;8882;53.192;8.184;2024-01-30T13:33:59;13.80;;;7.37;;
17528;SDS011;8882;53.192;8.184;2024-01-30T13:36:25;10.03;;;6.67;;
17528;SDS011;8882;53.192;8.184;2024-01-30T13:38:51;11.73;;;8.17;;
17528;SDS011;8882;53.192;8.184;2024-01-30T13:41:16;11.03;;;7.57;;
17528;SDS011;8882;53.192;8.184;2024-01-30T13:43:43;13.63;;;7.60;;
17528;SDS011;8882;53.192;8.184;2024-01-30T13:46:09;10.80;;;7.67;;
17528;SDS011;8882;53.192;8.184;2024-01-30T13:48:35;15.13;;;8.57;;
17528;SDS011;8882;53.192;8.184;2024-01-30T13:51:00;11.67;;;7.13;;
17528;SDS011;8882;53.192;8.184;2024-01-30T13:53:26;11.30;;;7.80;;
17528;SDS011;8882;53.192;8.184;2024-01-30T13:55:51;12.27;;;7.50;;
17528;SDS011;8882;53.192;8.184;2024-01-30T13:58:17;15.50;;;7.67;;
17528;SDS011;8882;53.192;8.184;2024-01-30T14:00:42;12.53;;;7.57;;
17528;SDS011;8882;53.192;8.184;2024-01-30T14:03:08;13.10;;;7.67;;
17528;SDS011;8882;53.192;8.184;2024-01-30T14:05:33;9.57;;;6.67;;
17528;SDS011;8882;53.192;8.184;2024-01-30T14:08:00;11.23;;;7.60;;
17528;SDS011;8882;53.192;8.184;2024-01-30T14:10:25;12.63;;;7.40;;
17528;SDS011;8882;53.192;8.184;2024-01-30T14:12:51;11.50;;;7.37;;
17528;SDS011;8882;53.192;8.184;2024-01-30T14:15:17;13.60;;;7.60;;
17528;SDS011;8882;53.192;8.184;2024-01-30T14:17:43;10.87;;;7.23;;
17528;SDS011;8882;53.192;8.184;2024-01-30T14:20:10;9.80;;;6.77;;
17528;SDS011;8882;53.192;8.184;2024-01-30T14:22:35;11.70;;;7.00;;
17528;SDS011;8882;53.192;8.184;2024-01-30T14:25:01;11.47;;;6.60;;
17528;SDS011;8882;53.192;8.184;2024-01-30T14:27:28;11.67;;;7.13;;
17528;SDS011;8882;53.192;8.184;2024-01-30T14:29:55;10.83;;;7.20;;
17528;SDS011;8882;53.192;8.184;2024-01-30T14:32:21;12.23;;;7.27;;
17528;SDS011;8882;53.192;8.184;2024-01-30T14:34:46;11.23;;;7.30;;
17528;SDS011;8882;53.192;8.184;2024-01-30T14:37:12;20.37;;;11.50;;
17528;SDS011;8882;53.192;8.184;2024-01-30T14:39:38;16.13;;;8.83;;
17528;SDS011;8882;53.192;8.184;2024-01-30T14:42:05;12.03;;;8.03;;
17528;SDS011;8882;53.192;8.184;2024-01-30T14:44:31;21.07;;;14.37;;
17528;SDS011;8882;53.192;8.184;2024-01-30T14:46:57;10.17;;;7.37;;
17528;SDS011;8882;53.192;8.184;2024-01-30T14:49:22;11.13;;;7.37;;
17528;SDS011;8882;53.192;8.184;2024-01-30T14:51:48;11.10;;;7.20;;
17528;SDS011;8882;53.192;8.184;2024-01-30T14:54:13;14.97;;;7.57;;
17528;SDS011;8882;53.192;8.184;2024-01-30T14:56:39;10.03;;;7.50;;
17528;SDS011;8882;53.192;8.184;2024-01-30T14:59:05;14.17;;;7.93;;
17528;SDS011;8882;53.192;8.184;2024-01-30T15:01:30;13.37;;;8.13;;
17528;SDS011;8882;53.192;8.184;2024-01-30T15:03:56;13.43;;;7.77;;
17528;SDS011;8882;53.192;8.184;2024-01-30T15:06:22;9.50;;;7.50;;
17528;SDS011;8882;53.192;8.184;2024-01-30T15:08:49;10.80;;;7.83;;
17528;SDS011;8882;53.192;8.184;2024-01-30T15:11:15;9.30;;;7.60;;
17528;SDS011;8882;53.192;8.184;2024-01-30T15:13:40;10.80;;;7.80;;
17528;SDS011;8882;53.192;8.184;2024-01-30T15:16:06;10.97;;;6.57;;
17528;SDS011;8882;53.192;8.184;2024-01-30T15:18:32;9.87;;;6.90;;
17528;SDS011;8882;53.192;8.184;2024-01-30T15:20:57;9.70;;;5.37;;
17528;SDS011;8882;53.192;8.184;2024-01-30T15:23:23;8.97;;;5.57;;
17528;SDS011;8882;53.192;8.184;2024-01-30T15:25:48;8.17;;;5.70;;
17528;SDS011;8882;53.192;8.184;2024-01-30T15:28:14;9.23;;;5.83;;
17528;SDS011;8882;53.192;8.184;2024-01-30T15:30:40;9.40;;;5.50;;
17528;SDS011;8882;53.192;8.184;2024-01-30T15:33:09;6.60;;;5.30;;
17528;SDS011;8882;53.192;8.184;2024-01-30T15:35:35;7.90;;;4.63;;
17528;SDS011;8882;53.192;8.184;2024-01-30T15:38:00;9.77;;;5.60;;
17528;SDS011;8882;53.192;8.184;2024-01-30T15:40:26;10.67;;;5.27;;
17528;SDS011;8882;53.192;8.184;2024-01-30T15:42:52;9.63;;;4.70;;
17528;SDS011;8882;53.192;8.184;2024-01-30T15:45:17;11.13;;;6.03;;
17528;SDS011;8882;53.192;8.184;2024-01-30T15:47:43;6.17;;;4.27;;
17528;SDS011;8882;53.192;8.184;2024-01-30T15:50:08;7.60;;;4.17;;
17528;SDS011;8882;53.192;8.184;2024-01-30T15:52:36;5.37;;;4.33;;
17528;SDS011;8882;53.192;8.184;2024-01-30T15:55:02;4.37;;;3.73;;
17528;SDS011;8882;53.192;8.184;2024-01-30T15:57:27;7.63;;;3.53;;
17528;SDS011;8882;53.192;8.184;2024-01-30T15:59:53;4.70;;;3.80;;
17528;SDS011;8882;53.192;8.184;2024-01-30T16:02:18;6.73;;;5.40;;
17528;SDS011;8882;53.192;8.184;2024-01-30T16:04:45;8.23;;;5.23;;
17528;SDS011;8882;53.192;8.184;2024-01-30T16:07:11;6.47;;;3.80;;
17528;SDS011;8882;53.192;8.184;2024-01-30T16:09:37;4.33;;;2.70;;
17528;SDS011;8882;53.192;8.184;2024-01-30T16:12:02;8.07;;;4.70;;
17528;SDS011;8882;53.192;8.184;2024-01-30T16:14:28;5.27;;;3.70;;
17528;SDS011;8882;53.192;8.184;2024-01-30T16:16:53;4.80;;;2.83;;
17528;SDS011;8882;53.192;8.184;2024-01-30T16:19:20;3.03;;;2.10;;
17528;SDS011;8882;53.192;8.184;2024-01-30T16:21:45;6.70;;;3.60;;
17528;SDS011;8882;53.192;8.184;2024-01-30T16:24:11;3.80;;;2.10;;
17528;SDS011;8882;53.192;8.184;2024-01-30T16:26:36;3.70;;;2.60;;
17528;SDS011;8882;53.192;8.184;2024-01-30T16:29:02;5.40;;;3.67;;
17528;SDS011;8882;53.192;8.184;2024-01-30T16:31:28;5.00;;;2.30;;
17528;SDS011;8882;53.192;8.184;2024-01-30T16:33:53;5.70;;;3.30;;
17528;SDS011;8882;53.192;8.184;2024-01-30T16:36:19;3.43;;;2.33;;
17528;SDS011;8882;53.192;8.184;2024-01-30T16:38:44;3.90;;;2.37;;
17528;SDS011;8882;53.192;8.184;2024-01-30T16:41:11;7.13;;;3.93;;
17528;SDS011;8882;53.192;8.184;2024-01-30T16:43:36;5.13;;;2.70;;
17528;SDS011;8882;53.192;8.184;2024-01-30T16:46:02;3.03;;;2.40;;
17528;SDS011;8882;53.192;8.184;2024-01-30T16:48:29;2.67;;;2.10;;
17528;SDS011;8882;53.192;8.184;2024-01-30T16:50:55;2.23;;;2.00;;
17528;SDS011;8882;53.192;8.184;2024-01-30T16:53:20;7.87;;;3.07;;
17528;SDS011;8882;53.192;8.184;2024-01-30T16:55:46;4.63;;;2.83;;
17528;SDS011;8882;53.192;8.184;2024-01-30T16:58:12;8.57;;;3.13;;
17528;SDS011;8882;53.192;8.184;2024-01-30T17:00:38;5.13;;;2.67;;
17528;SDS011;8882;53.192;8.184;2024-01-30T17:03:03;6.50;;;3.37;;
17528;SDS011;8882;53.192;8.184;2024-01-30T17:05:30;5.37;;;2.77;;
17528;SDS011;8882;53.192;8.184;2024-01-30T17:07:55;3.70;;;2.40;;
17528;SDS011;8882;53.192;8.184;2024-01-30T17:10:23;7.57;;;3.33;;
17528;SDS011;8882;53.192;8.184;2024-01-30T17:14:27;7.07;;;3.13;;
17528;SDS011;8882;53.192;8.184;2024-01-30T17:16:53;3.87;;;3.07;;
17528;SDS011;8882;53.192;8.184;2024-01-30T17:19:19;3.83;;;2.27;;
17528;SDS011;8882;53.192;8.184;2024-01-30T17:21:44;3.07;;;1.93;;
17528;SDS011;8882;53.192;8.184;2024-01-30T17:24:10;2.70;;;2.50;;
17528;SDS011;8882;53.192;8.184;2024-01-30T17:26:36;2.30;;;2.10;;
17528;SDS011;8882;53.192;8.184;2024-01-30T17:29:01;3.10;;;2.37;;
17528;SDS011;8882;53.192;8.184;2024-01-30T17:31:27;3.70;;;2.10;;
17528;SDS011;8882;53.192;8.184;2024-01-30T17:33:53;4.23;;;2.30;;
17528;SDS011;8882;53.192;8.184;2024-01-30T17:36:19;5.50;;;2.90;;
17528;SDS011;8882;53.192;8.184;2024-01-30T17:38:44;6.57;;;2.73;;
17528;SDS011;8882;53.192;8.184;2024-01-30T17:41:09;4.13;;;2.77;;
17528;SDS011;8882;53.192;8.184;2024-01-30T17:43:35;6.37;;;4.37;;
17528;SDS011;8882;53.192;8.184;2024-01-30T17:46:00;3.90;;;2.60;;
17528;SDS011;8882;53.192;8.184;2024-01-30T17:48:26;6.50;;;3.50;;
17528;SDS011;8882;53.192;8.184;2024-01-30T17:50:52;4.50;;;3.37;;
17528;SDS011;8882;53.192;8.184;2024-01-30T17:53:17;5.53;;;3.03;;
17528;SDS011;8882;53.192;8.184;2024-01-30T17:55:43;5.37;;;3.23;;
17528;SDS011;8882;53.192;8.184;2024-01-30T17:58:08;7.40;;;3.37;;
17528;SDS011;8882;53.192;8.184;2024-01-30T18:00:34;3.30;;;2.90;;
17528;SDS011;8882;53.192;8.184;2024-01-30T18:03:00;5.33;;;3.63;;
17528;SDS011;8882;53.192;8.184;2024-01-30T18:05:26;5.87;;;3.63;;
17528;SDS011;8882;53.192;8.184;2024-01-30T18:07:52;6.50;;;4.00;;
17528;SDS011;8882;53.192;8.184;2024-01-30T18:10:17;9.27;;;4.77;;
17528;SDS011;8882;53.192;8.184;2024-01-30T18:12:43;6.63;;;4.37;;
17528;SDS011;8882;53.192;8.184;2024-01-30T18:15:09;8.27;;;5.10;;
17528;SDS011;8882;53.192;8.184;2024-01-30T18:17:36;7.20;;;3.80;;
17528;SDS011;8882;53.192;8.184;2024-01-30T18:20:01;10.50;;;4.90;;
17528;SDS011;8882;53.192;8.184;2024-01-30T18:22:29;5.20;;;4.27;;
17528;SDS011;8882;53.192;8.184;2024-01-30T18:24:54;7.20;;;5.10;;
17528;SDS011;8882;53.192;8.184;2024-01-30T18:27:20;5.87;;;4.07;;
17528;SDS011;8882;53.192;8.184;2024-01-30T18:29:46;7.83;;;5.17;;
17528;SDS011;8882;53.192;8.184;2024-01-30T18:32:12;6.10;;;4.93;;
17528;SDS011;8882;53.192;8.184;2024-01-30T18:34:38;8.20;;;4.53;;
17528;SDS011;8882;53.192;8.184;2024-01-30T18:37:04;6.13;;;5.00;;
17528;SDS011;8882;53.192;8.184;2024-01-30T18:39:31;8.67;;;4.47;;
17528;SDS011;8882;53.192;8.184;2024-01-30T18:41:56;6.70;;;4.50;;
17528;SDS011;8882;53.192;8.184;2024-01-30T18:44:22;6.03;;;4.83;;
17528;SDS011;8882;53.192;8.184;2024-01-30T18:46:47;5.97;;;4.53;;
17528;SDS011;8882;53.192;8.184;2024-01-30T18:49:14;5.13;;;4.10;;
17528;SDS011;8882;53.192;8.184;2024-01-30T18:51:40;5.07;;;3.60;;
17528;SDS011;8882;53.192;8.184;2024-01-30T18:54:06;5.43;;;3.80;;
17528;SDS011;8882;53.192;8.184;2024-01-30T18:56:32;5.27;;;3.90;;
17528;SDS011;8882;53.192;8.184;2024-01-30T18:58:57;5.33;;;4.03;;
17528;SDS011;8882;53.192;8.184;2024-01-30T19:01:23;6.90;;;4.43;;
17528;SDS011;8882;53.192;8.184;2024-01-30T19:03:48;4.83;;;4.00;;
17528;SDS011;8882;53.192;8.184;2024-01-30T19:06:14;5.17;;;3.90;;
17528;SDS011;8882;53.192;8.184;2024-01-30T19:08:39;6.20;;;4.00;;
17528;SDS011;8882;53.192;8.184;2024-01-30T19:11:05;6.93;;;3.80;;
17528;SDS011;8882;53.192;8.184;2024-01-30T19:13:30;5.33;;;3.73;;
17528;SDS011;8882;53.192;8.184;2024-01-30T19:15:56;6.80;;;4.43;;
17528;SDS011;8882;53.192;8.184;2024-01-30T19:18:22;19.00;;;9.70;;
17528;SDS011;8882;53.192;8.184;2024-01-30T19:20:47;6.33;;;4.23;;
17528;SDS011;8882;53.192;8.184;2024-01-30T19:23:14;5.37;;;3.60;;
17528;SDS011;8882;53.192;8.184;2024-01-30T19:25:40;7.03;;;5.17;;
17528;SDS011;8882;53.192;8.184;2024-01-30T19:28:05;7.77;;;5.40;;
17528;SDS011;8882;53.192;8.184;2024-01-30T19:30:32;4.33;;;3.50;;
17528;SDS011;8882;53.192;8.184;2024-01-30T19:32:57;3.60;;;3.30;;
17528;SDS011;8882;53.192;8.184;2024-01-30T19:35:23;4.03;;;2.47;;
17528;SDS011;8882;53.192;8.184;2024-01-30T19:37:49;2.90;;;2.47;;
17528;SDS011;8882;53.192;8.184;2024-01-30T19:40:14;2.93;;;2.70;;
17528;SDS011;8882;53.192;8.184;2024-01-30T19:42:40;2.40;;;2.17;;
17528;SDS011;8882;53.192;8.184;2024-01-30T19:45:05;2.73;;;2.40;;
17528;SDS011;8882;53.192;8.184;2024-01-30T19:47:35;4.97;;;2.95;;
17528;SDS011;8882;53.192;8.184;2024-01-30T19:50:01;5.13;;;2.97;;
17528;SDS011;8882;53.192;8.184;2024-01-30T19:52:26;5.30;;;3.00;;
17528;SDS011;8882;53.192;8.184;2024-01-30T19:54:52;3.73;;;2.57;;
17528;SDS011;8882;53.192;8.184;2024-01-30T19:57:17;4.60;;;2.50;;
17528;SDS011;8882;53.192;8.184;2024-01-30T19:59:43;4.03;;;2.97;;
17528;SDS011;8882;53.192;8.184;2024-01-30T20:02:08;4.70;;;2.70;;
17528;SDS011;8882;53.192;8.184;2024-01-30T20:04:34;4.77;;;2.67;;